Time;durP1;ratioP1;P1;durP2;ratioP2;P2;SDS_P1;SDS_P2;PMS_P1;PMS_P2;Temp;Humidity;BMP_temperature;BMP_pressure;BME280_temperature;BME280_humidity;BME280_pressure;Samples;Min_cycle;Max_cycle;Signal;HPM_P1;HPM_P2
2022/06/10 00:00:03;;;;;;;1.35;0.20;;;13.70;99.90;;;;;;6396120;22;20021;-90
2022/06/10 00:02:48;;;;;;;;;;;;;;;;;;;;;
2022/06/10 00:05:36;;;;;;;1.40;0.40;;;13.60;99.90;;;;;;6395003;22;20000;-91
2022/06/10 00:08:10;;;;;;;0.68;0.30;;;13.60;99.90;;;;;;6394581;22;20002;-89
2022/06/10 00:10:45;;;;;;;1.88;0.30;;;13.10;99.90;;;;;;6392204;22;19999;-92
2022/06/10 00:13:39;;;;;;;1.65;0.57;;;13.40;99.90;;;;;;6394519;22;20001;-90
2022/06/10 00:16:12;;;;;;;0.70;0.30;;;13.70;99.90;;;;;;6391767;22;20007;-90
2022/06/10 00:18:41;;;;;;;0.90;0.30;;;13.30;99.90;;;;;;6396179;22;20028;-90
2022/06/10 00:21:27;;;;;;;0.52;0.30;;;13.60;99.90;;;;;;6397192;22;19999;-90
2022/06/10 00:23:53;;;;;;;2.70;0.50;;;13.20;99.90;;;;;;6380523;22;20002;-90
2022/06/10 00:26:26;;;;;;;2.35;0.68;;;13.20;99.90;;;;;;6396522;22;19986;-90
2022/06/10 00:29:09;;;;;;;1.83;0.50;;;13.10;99.90;;;;;;6382118;22;20010;-92
2022/06/10 00:34:36;;;;;;;1.88;0.63;;;13.10;99.90;;;;;;6353967;22;20018;-88
2022/06/10 00:37:06;;;;;;;2.63;0.40;;;13.10;99.90;;;;;;6338438;22;20455;-87
2022/06/10 00:39:34;;;;;;;1.50;0.30;;;13.20;99.90;;;;;;6367911;22;19998;-87
2022/06/10 00:42:03;;;;;;;2.13;0.32;;;13.20;99.90;;;;;;6340299;22;20073;-88
2022/06/10 00:44:40;;;;;;;1.88;0.30;;;13.20;99.90;;;;;;6340140;22;20079;-87
2022/06/10 00:47:17;;;;;;;0.93;0.50;;;13.30;99.90;;;;;;6339590;22;20371;-87
2022/06/10 00:49:57;;;;;;;2.97;0.50;;;13.20;99.90;;;;;;6340274;22;20097;-87
2022/06/10 00:52:31;;;;;;;1.25;0.40;;;13.20;99.90;;;;;;6368029;22;20005;-88
2022/06/10 00:54:57;;;;;;;1.08;0.45;;;13.20;99.90;;;;;;6340359;22;20014;-87
2022/06/10 00:57:44;;;;;;;1.35;0.55;;;13.20;99.90;;;;;;6339549;22;20081;-87
2022/06/10 01:00:13;;;;;;;1.33;0.40;;;13.30;99.90;;;;;;6340139;22;20063;-88
2022/06/10 01:02:40;;;;;;;1.00;0.30;;;13.30;99.90;;;;;;6339651;22;20006;-87
2022/06/10 01:05:10;;;;;;;0.85;0.40;;;13.20;99.90;;;;;;6338602;22;20336;-87
2022/06/10 01:07:40;;;;;;;0.63;0.30;;;13.10;99.90;;;;;;6367404;22;20005;-87
2022/06/10 01:10:09;;;;;;;1.58;0.50;;;13.00;99.90;;;;;;6339848;22;20397;-87
2022/06/10 01:12:35;;;;;;;4.85;0.55;;;13.00;99.90;;;;;;6339349;22;19994;-88
2022/06/10 01:15:04;;;;;;;1.10;0.50;;;13.00;99.90;;;;;;6338899;22;20056;-88
2022/06/10 01:17:48;;;;;;;1.23;0.40;;;13.00;99.90;;;;;;6339709;22;20007;-88
2022/06/10 01:20:55;;;;;;;1.73;0.60;;;13.00;99.90;;;;;;5081802;28;20502;-88
2022/06/10 01:24:00;;;;;;;0.63;0.30;;;13.00;99.90;;;;;;5069871;28;20029;-88
2022/06/10 01:29:40;;;;;;;1.08;0.32;;;13.00;99.90;;;;;;5068151;28;20059;-88
2022/06/10 01:32:33;;;;;;;1.85;0.65;;;13.40;99.90;;;;;;5072672;28;20035;-89
2022/06/10 01:35:22;;;;;;;2.15;0.40;;;13.00;99.90;;;;;;5080998;22;20411;-90
2022/06/10 01:38:00;;;;;;;1.55;0.40;;;12.20;99.90;;;;;;5063280;28;20033;-90
2022/06/10 01:40:51;;;;;;;1.23;0.40;;;12.80;99.90;;;;;;5046259;28;20059;-89
2022/06/10 01:43:27;;;;;;;1.35;0.45;;;12.70;99.90;;;;;;5044335;28;20187;-90
2022/06/10 01:45:58;;;;;;;3.28;0.85;;;12.70;99.90;;;;;;5035008;28;20021;-89
2022/06/10 01:48:37;;;;;;;1.77;0.50;;;12.80;99.90;;;;;;5045347;28;20079;-89
2022/06/10 01:51:30;;;;;;;0.60;0.40;;;12.10;99.90;;;;;;5056640;28;20037;-90
2022/06/10 01:54:09;;;;;;;1.23;0.40;;;12.60;99.90;;;;;;5044031;28;20032;-89
2022/06/10 01:56:46;;;;;;;2.83;0.50;;;13.10;99.90;;;;;;5040485;28;20029;-89
2022/06/10 01:59:20;;;;;;;0.55;0.30;;;12.50;99.90;;;;;;5042522;28;20026;-89
2022/06/10 02:01:52;;;;;;;1.83;0.43;;;12.70;99.90;;;;;;5042984;28;20029;-88
2022/06/10 02:04:22;;;;;;;1.83;0.52;;;12.50;99.90;;;;;;5038851;28;20025;-90
2022/06/10 02:07:00;;;;;;;0.98;0.50;;;12.70;99.90;;;;;;5046259;28;20028;-89
2022/06/10 02:09:50;;;;;;;0.77;0.28;;;12.70;99.90;;;;;;5042501;28;20036;-90
2022/06/10 02:12:48;;;;;;;1.10;0.45;;;12.40;99.90;;;;;;5057872;28;20053;-89
2022/06/10 02:15:28;;;;;;;2.10;0.55;;;12.40;99.90;;;;;;5049738;28;20063;-89
2022/06/10 02:18:16;;;;;;;0.28;0.20;;;12.30;99.90;;;;;;5037640;28;20033;-89
2022/06/10 02:20:49;;;;;;;2.55;0.65;;;12.30;99.90;;;;;;5046473;28;20021;-88
2022/06/10 02:23:25;;;;;;;1.23;0.35;;;12.00;99.90;;;;;;5045147;28;20045;-90
2022/06/10 02:26:03;;;;;;;2.00;0.40;;;12.30;99.90;;;;;;5037866;28;20025;-90
2022/06/10 02:28:41;;;;;;;2.10;0.60;;;12.50;99.90;;;;;;5046363;28;20025;-89
2022/06/10 02:31:18;;;;;;;0.98;0.50;;;12.30;99.90;;;;;;5033201;28;20041;-89
2022/06/10 02:33:45;;;;;;;0.40;0.30;;;12.30;99.90;;;;;;5020344;28;20034;-89
2022/06/10 02:36:22;;;;;;;1.55;0.40;;;12.20;99.90;;;;;;5031959;28;20040;-89
2022/06/10 02:39:19;;;;;;;0.70;0.38;;;12.20;99.90;;;;;;5026057;28;20029;-90
2022/06/10 02:42:03;;;;;;;0.95;0.50;;;12.20;99.90;;;;;;5042992;28;21345;-89
2022/06/10 02:44:50;;;;;;;0.93;0.47;;;12.20;99.90;;;;;;5030585;28;20037;-89
2022/06/10 02:47:36;;;;;;;2.40;0.60;;;12.20;99.90;;;;;;5024758;28;20009;-89
2022/06/10 02:50:02;;;;;;;1.13;0.40;;;12.10;99.90;;;;;;5032313;28;20037;-88
2022/06/10 02:52:35;;;;;;;2.00;0.57;;;12.10;99.90;;;;;;5032779;28;20436;-89
2022/06/10 02:55:07;;;;;;;1.13;0.40;;;12.10;99.90;;;;;;5038725;28;20104;-89
2022/06/10 03:03:33;;;;;;;0.93;0.40;;;12.10;99.90;;;;;;5032826;28;20027;-89
2022/06/10 03:06:07;;;;;;;1.55;0.50;;;12.10;99.90;;;;;;5026843;28;20014;-90
2022/06/10 03:08:47;;;;;;;1.10;0.50;;;12.10;99.90;;;;;;5032892;28;20031;-90
2022/06/10 03:11:55;;;;;;;1.55;0.50;;;12.00;99.90;;;;;;5026876;28;20026;-88
2022/06/10 03:14:39;;;;;;;2.33;0.93;;;12.00;99.90;;;;;;5041665;28;20030;-89
2022/06/10 03:17:17;;;;;;;1.73;0.52;;;12.00;99.90;;;;;;5018584;28;20167;-88
2022/06/10 03:20:17;;;;;;;1.08;0.40;;;12.00;99.90;;;;;;5025594;28;20041;-89
2022/06/10 03:23:16;;;;;;;1.00;0.38;;;12.00;99.90;;;;;;5043848;28;20045;-88
2022/06/10 03:26:16;;;;;;;0.65;0.40;;;12.00;99.90;;;;;;5031443;28;20371;-89
2022/06/10 03:29:02;;;;;;;1.85;0.60;;;12.00;99.90;;;;;;5031871;28;20505;-89
2022/06/10 03:31:56;;;;;;;1.42;0.45;;;12.10;99.90;;;;;;5022861;28;20508;-89
2022/06/10 03:34:40;;;;;;;0.70;0.50;;;12.00;99.90;;;;;;5026837;28;20037;-89
2022/06/10 03:37:11;;;;;;;4.45;0.50;;;12.00;99.90;;;;;;5023158;28;20502;-89
2022/06/10 03:39:41;;;;;;;1.92;0.63;;;12.00;99.90;;;;;;5031418;28;20068;-88
2022/06/10 03:42:15;;;;;;;1.95;0.70;;;11.30;99.90;;;;;;5026145;28;20029;-88
2022/06/10 03:44:45;;;;;;;1.65;0.60;;;12.00;99.90;;;;;;5029332;28;20033;-91
2022/06/10 03:47:17;;;;;;;1.08;0.40;;;12.00;99.90;;;;;;5022561;28;20036;-89
2022/06/10 03:49:57;;;;;;;1.45;0.60;;;12.00;99.90;;;;;;5025990;28;20025;-89
2022/06/10 03:52:30;;;;;;;1.30;0.60;;;12.80;99.90;;;;;;5025009;28;20037;-89
2022/06/10 03:54:59;;;;;;;2.50;0.68;;;11.90;99.90;;;;;;5027277;28;20026;-89
2022/06/10 03:57:30;;;;;;;1.65;0.55;;;11.00;99.90;;;;;;5030280;28;20040;-89
2022/06/10 03:59:56;;;;;;;1.20;0.55;;;11.80;99.90;;;;;;5023789;28;20072;-89
2022/06/10 04:02:24;;;;;;;1.67;0.50;;;12.90;99.90;;;;;;5026738;28;20065;-89
2022/06/10 04:04:51;;;;;;;1.15;0.40;;;11.80;99.90;;;;;;5025929;28;20163;-89
2022/06/10 04:07:19;;;;;;;1.60;0.63;;;11.90;99.90;;;;;;5031918;28;20028;-89
2022/06/10 04:09:48;;;;;;;0.90;0.40;;;11.90;99.90;;;;;;5030968;28;20099;-89
2022/06/10 04:12:15;;;;;;;2.30;0.50;;;12.50;99.90;;;;;;5023734;28;20363;-89
2022/06/10 04:14:42;;;;;;;1.40;0.60;;;12.00;99.90;;;;;;5032351;28;20108;-89
2022/06/10 04:17:09;;;;;;;1.88;0.52;;;11.90;99.90;;;;;;5029795;28;20143;-89
2022/06/10 04:19:40;;;;;;;0.98;0.40;;;12.10;99.90;;;;;;5019834;28;20042;-89
2022/06/10 04:22:06;;;;;;;0.57;0.40;;;12.10;99.90;;;;;;5025425;28;20071;-89
2022/06/10 04:24:32;;;;;;;0.82;0.45;;;12.10;99.90;;;;;;5029403;28;20022;-88
2022/06/10 04:26:58;;;;;;;3.10;0.60;;;12.10;99.90;;;;;;5030174;28;20083;-89
2022/06/10 04:29:26;;;;;;;1.08;0.60;;;12.00;99.90;;;;;;5024055;28;20108;-89
2022/06/10 04:31:52;;;;;;;1.38;0.47;;;12.50;99.90;;;;;;5029851;28;20025;-89
2022/06/10 04:34:29;;;;;;;1.45;0.60;;;12.20;99.90;;;;;;5031019;28;20048;-89
2022/06/10 04:36:58;;;;;;;2.38;0.50;;;12.30;99.90;;;;;;5028031;28;20083;-89
2022/06/10 04:39:27;;;;;;;3.85;0.55;;;12.30;99.90;;;;;;5032461;28;20056;-89
2022/06/10 04:41:53;;;;;;;3.65;1.20;;;12.30;99.90;;;;;;5022116;28;20128;-88
2022/06/10 04:44:32;;;;;;;1.50;0.60;;;12.30;99.90;;;;;;5013341;28;20030;-88
2022/06/10 04:47:08;;;;;;;1.85;0.60;;;12.10;99.90;;;;;;5030834;28;20036;-89
2022/06/10 04:49:36;;;;;;;2.78;0.93;;;12.10;99.90;;;;;;5034841;28;20049;-90
2022/06/10 04:52:11;;;;;;;3.53;1.13;;;12.20;99.90;;;;;;5047909;28;20025;-90
2022/06/10 04:54:37;;;;;;;1.85;0.40;;;12.40;99.90;;;;;;5055486;28;20006;-89
2022/06/10 04:57:03;;;;;;;2.67;0.68;;;12.50;99.90;;;;;;5043895;28;20025;-90
2022/06/10 04:59:35;;;;;;;0.95;0.47;;;12.60;99.90;;;;;;5045084;28;20033;-90
2022/06/10 05:02:01;;;;;;;2.05;0.98;;;12.70;99.90;;;;;;5049173;28;20009;-90
2022/06/10 05:04:30;;;;;;;1.50;0.60;;;12.90;99.90;;;;;;5055089;28;20041;-90
2022/06/10 05:07:00;;;;;;;2.03;0.60;;;13.00;99.90;;;;;;5064302;28;20120;-90
2022/06/10 05:09:29;;;;;;;1.05;0.40;;;13.20;99.90;;;;;;5040230;28;20026;-90
2022/06/10 05:11:57;;;;;;;1.63;0.68;;;13.10;99.90;;;;;;5048757;28;20033;-89
2022/06/10 05:14:29;;;;;;;2.17;0.65;;;13.50;99.90;;;;;;5040998;28;20036;-90
2022/06/10 05:17:03;;;;;;;;;;;13.50;99.90;;;;;;5031202;28;20034;-89
2022/06/10 05:19:31;;;;;;;1.92;0.60;;;13.40;99.90;;;;;;5027159;28;19913;-89
2022/06/10 05:21:58;;;;;;;2.92;0.40;;;13.40;99.90;;;;;;5039256;28;20025;-89
2022/06/10 05:24:23;;;;;;;5.63;0.70;;;13.30;99.90;;;;;;5038617;28;20544;-88
2022/06/10 05:26:49;;;;;;;2.15;0.90;;;13.40;99.90;;;;;;5041858;28;20043;-88
2022/06/10 05:29:15;;;;;;;1.60;0.45;;;13.50;99.90;;;;;;5043437;28;20029;-90
2022/06/10 05:31:44;;;;;;;1.83;0.60;;;13.50;99.90;;;;;;5030775;28;20478;-89
2022/06/10 05:36:54;;;;;;;1.60;0.60;;;13.70;99.90;;;;;;5024195;28;20148;-89
2022/06/10 05:39:22;;;;;;;1.73;0.40;;;13.90;99.90;;;;;;5019055;28;20069;-90
2022/06/10 05:42:06;;;;;;;2.78;0.50;;;14.00;99.90;;;;;;5030714;28;20017;-89
2022/06/10 05:44:33;;;;;;;2.13;0.73;;;14.10;99.90;;;;;;5028111;28;20036;-89
2022/06/10 05:47:00;;;;;;;1.08;0.50;;;14.20;99.90;;;;;;5028140;28;20017;-89
2022/06/10 05:49:27;;;;;;;3.60;0.50;;;14.20;99.90;;;;;;5027535;28;20413;-88
2022/06/10 05:51:53;;;;;;;1.05;0.52;;;14.30;99.90;;;;;;5021181;28;20018;-88
2022/06/10 05:54:19;;;;;;;4.10;0.85;;;14.50;99.90;;;;;;5029649;28;20584;-89
2022/06/10 05:56:45;;;;;;;2.17;0.60;;;14.60;99.90;;;;;;5024836;28;20113;-89
2022/06/10 05:59:11;;;;;;;1.60;0.60;;;14.50;99.90;;;;;;5019880;28;20144;-89
2022/06/10 06:01:38;;;;;;;0.60;0.30;;;14.90;99.90;;;;;;5027482;28;20026;-88
2022/06/10 06:04:04;;;;;;;2.30;0.70;;;14.60;99.90;;;;;;5030311;28;20571;-89
2022/06/10 06:06:29;;;;;;;1.13;0.60;;;14.70;99.90;;;;;;5028088;28;20025;-89
2022/06/10 06:08:55;;;;;;;1.50;0.75;;;14.80;99.90;;;;;;5032992;28;20049;-88
2022/06/10 06:11:21;;;;;;;1.48;0.60;;;15.00;99.90;;;;;;5033157;28;20029;-88
2022/06/10 06:13:46;;;;;;;1.23;0.75;;;14.90;99.90;;;;;;5031062;28;20033;-89
2022/06/10 06:16:14;;;;;;;0.68;0.47;;;14.90;99.90;;;;;;5016600;28;20026;-88
2022/06/10 06:18:40;;;;;;;2.50;0.40;;;14.70;99.90;;;;;;5033057;28;20561;-89
2022/06/10 06:21:06;;;;;;;2.30;0.82;;;15.30;99.90;;;;;;5039193;28;20155;-89
2022/06/10 06:23:32;;;;;;;3.25;0.50;;;15.40;99.90;;;;;;5031495;28;20026;-89
2022/06/10 06:25:58;;;;;;;1.58;0.50;;;15.40;99.90;;;;;;5034038;28;20024;-89
2022/06/10 06:28:24;;;;;;;1.10;0.38;;;15.30;99.90;;;;;;5031264;28;20010;-89
2022/06/10 06:30:50;;;;;;;0.82;0.40;;;15.50;99.90;;;;;;5030564;28;21543;-89
2022/06/10 06:33:16;;;;;;;2.30;0.60;;;15.50;99.90;;;;;;5019992;28;20022;-89
2022/06/10 06:35:49;;;;;;;2.33;0.55;;;15.70;99.90;;;;;;5032143;28;20096;-90
2022/06/10 06:38:15;;;;;;;0.85;0.50;;;15.90;99.90;;;;;;5024649;28;20037;-89
2022/06/10 06:40:42;;;;;;;2.53;0.63;;;15.90;99.90;;;;;;5032866;28;20026;-89
2022/06/10 06:43:09;;;;;;;1.13;0.50;;;16.10;99.90;;;;;;5030115;28;20030;-90
2022/06/10 06:45:36;;;;;;;3.25;0.55;;;16.20;99.90;;;;;;5031460;28;20112;-89
2022/06/10 06:48:10;;;;;;;1.00;0.50;;;16.30;99.90;;;;;;5029682;28;20151;-89
2022/06/10 06:50:45;;;;;;;2.15;0.50;;;16.40;99.90;;;;;;5024110;28;20033;-89
2022/06/10 06:53:11;;;;;;;6.03;0.90;;;16.60;99.90;;;;;;5028619;28;20037;-89
2022/06/10 06:55:38;;;;;;;2.60;1.48;;;16.60;99.90;;;;;;5023606;28;20030;-89
2022/06/10 06:59:02;;;;;;;1.45;0.45;;;16.70;99.90;;;;;;5029922;28;20491;-88
2022/06/10 07:02:02;;;;;;;2.38;0.80;;;16.60;99.90;;;;;;5025102;28;20056;-87
2022/06/10 07:07:44;;;;;;;2.17;0.50;;;17.00;99.90;;;;;;5010248;28;20109;-88
2022/06/10 07:10:24;;;;;;;2.20;0.63;;;16.50;99.90;;;;;;5026878;28;20452;-87
2022/06/10 07:13:20;;;;;;;2.65;0.70;;;17.20;99.90;;;;;;5026329;28;20029;-88
2022/06/10 07:19:36;;;;;;;1.80;0.57;;;17.50;99.90;;;;;;4993467;28;20077;-88
2022/06/10 07:22:08;;;;;;;1.85;0.50;;;17.70;99.90;;;;;;4987936;28;20398;-88
2022/06/10 07:25:24;;;;;;;2.33;0.80;;;18.30;99.90;;;;;;5032159;28;20041;-88
2022/06/10 07:28:15;;;;;;;;;;;;;;;;;;;;;
2022/06/10 07:33:51;;;;;;;;;;;18.20;99.90;;;;;;5017399;28;20029;-88
2022/06/10 07:37:11;;;;;;;1.63;0.57;;;18.00;99.90;;;;;;5043258;22;20534;-91
2022/06/10 07:39:59;;;;;;;1.50;0.93;;;18.30;99.90;;;;;;4983256;28;20041;-91
2022/06/10 07:42:34;;;;;;;5.95;0.70;;;18.50;99.90;;;;;;4985418;28;20023;-90
2022/06/10 07:45:02;;;;;;;1.52;0.52;;;18.70;99.90;;;;;;4987951;28;20027;-90
2022/06/10 07:47:28;;;;;;;1.38;0.45;;;18.80;99.90;;;;;;4988853;28;20026;-90
2022/06/10 07:50:01;;;;;;;0.98;0.35;;;18.70;99.90;;;;;;4988640;28;20022;-91
2022/06/10 07:53:00;;;;;;;3.20;0.63;;;18.90;99.90;;;;;;4993320;28;20058;-90
2022/06/10 07:55:26;;;;;;;2.22;0.55;;;19.00;99.90;;;;;;5015614;23;20046;-90
2022/06/10 07:57:54;;;;;;;3.80;0.60;;;19.10;99.90;;;;;;5012812;28;20041;-91
2022/06/10 08:00:26;;;;;;;1.65;0.40;;;19.30;99.90;;;;;;5005936;28;20046;-91
2022/06/10 08:03:17;;;;;;;2.83;0.45;;;19.10;99.90;;;;;;5015625;28;20022;-91
2022/06/10 08:05:43;;;;;;;1.58;0.38;;;19.20;99.90;;;;;;5010310;28;20029;-91
2022/06/10 08:18:47;;;;;;;3.63;0.40;;;19.60;99.90;;;;;;5674070;22;20045;-90
2022/06/10 08:24:56;;;;;;;1.10;0.30;;;19.90;99.90;;;;;;5044734;28;20124;-91
2022/06/10 08:27:25;;;;;;;3.33;0.57;;;20.30;99.90;;;;;;5046198;28;20044;-90
2022/06/10 08:39:06;;;;;;;1.23;0.40;;;20.40;99.90;;;;;;4986851;28;20030;-91
2022/06/10 08:42:10;;;;;;;;;;;;;;;;;;;;;
2022/06/10 08:44:57;;;;;;;2.55;0.70;;;20.80;99.90;;;;;;5047883;28;20035;-91
2022/06/10 08:47:51;;;;;;;1.40;0.35;;;21.00;99.90;;;;;;5030045;28;20025;-91
2022/06/10 08:50:45;;;;;;;2.67;0.30;;;21.20;99.90;;;;;;5024616;28;20025;-91
2022/06/10 08:53:33;;;;;;;1.75;0.45;;;21.30;99.90;;;;;;5025082;28;20040;-91
2022/06/10 08:56:23;;;;;;;1.60;0.28;;;21.50;99.90;;;;;;5046034;28;20103;-91
2022/06/10 09:06:03;;;;;;;2.90;0.30;;;21.80;98.70;;;;;;5021397;28;20040;-92
2022/06/10 09:09:22;;;;;;;1.35;0.40;;;22.00;99.10;;;;;;4986647;28;20434;-92
2022/06/10 09:12:47;;;;;;;4.78;0.38;;;22.00;98.30;;;;;;5033804;28;20078;-92
2022/06/10 09:15:20;;;;;;;1.30;0.17;;;21.90;98.00;;;;;;4942168;29;20023;-92
2022/06/10 09:18:08;;;;;;;1.60;0.30;;;22.10;97.80;;;;;;4930633;28;20070;-92
2022/06/10 09:20:51;;;;;;;0.45;0.20;;;22.10;98.10;;;;;;5023204;28;20032;-92
2022/06/10 09:23:32;;;;;;;3.05;0.40;;;22.10;98.10;;;;;;5029033;28;20040;-91
2022/06/10 09:26:14;;;;;;;4.80;0.65;;;22.10;97.20;;;;;;5026685;28;20478;-92
2022/06/10 09:28:44;;;;;;;0.57;0.20;;;22.10;97.20;;;;;;5030247;28;20040;-91
2022/06/10 09:31:47;;;;;;;;;;;;;;;;;;;;;
2022/06/10 10:08:37;;;;;;;1.20;0.25;;;22.70;94.10;;;;;;5549596;22;20054;-87
2022/06/10 10:11:21;;;;;;;0.57;0.20;;;22.90;94.60;;;;;;4976391;28;20054;-87
2022/06/10 10:14:02;;;;;;;3.85;0.68;;;23.20;93.90;;;;;;4993961;28;20065;-87
2022/06/10 10:17:13;;;;;;;3.53;0.63;;;23.50;94.40;;;;;;4999064;28;20026;-87
2022/06/10 10:20:09;;;;;;;1.92;0.30;;;23.90;92.80;;;;;;4977000;28;20856;-86
2022/06/10 11:43:29;;;;;;;0.47;0.20;;;26.50;84.80;;;;;;4985986;28;20050;-92
2022/06/10 11:46:30;;;;;;;2.08;0.40;;;25.50;82.50;;;;;;4966843;28;20271;-91
2022/06/10 11:49:40;;;;;;;;;;;;;;;;;;;;;
2022/06/10 11:52:20;;;;;;;1.17;0.20;;;25.50;81.30;;;;;;4986408;28;20414;-92
2022/06/10 18:51:37;;;;;;;1.48;0.47;;;22.10;82.90;;;;;;3868237;22;20053;-89
2022/06/10 18:54:11;;;;;;;1.45;0.57;;;22.00;83.30;;;;;;5005096;28;20041;-88
2022/06/10 18:56:44;;;;;;;3.72;1.00;;;21.90;83.20;;;;;;5015004;28;20010;-89
2022/06/10 18:59:10;;;;;;;1.83;0.60;;;21.90;83.40;;;;;;4995719;28;20033;-89
2022/06/10 19:01:38;;;;;;;2.13;0.63;;;21.90;83.40;;;;;;4995720;28;20540;-89
2022/06/10 19:04:11;;;;;;;1.98;0.50;;;21.80;83.10;;;;;;5019840;28;20080;-89
2022/06/10 19:06:37;;;;;;;1.23;0.63;;;21.80;83.10;;;;;;5012652;28;20033;-90
2022/06/10 19:09:03;;;;;;;0.80;0.50;;;21.80;84.00;;;;;;4997812;28;20029;-90
2022/06/10 19:11:31;;;;;;;1.45;0.68;;;21.70;85.00;;;;;;4987255;28;20022;-88
2022/06/10 19:13:58;;;;;;;1.42;0.70;;;21.70;85.40;;;;;;5000419;28;20025;-88
2022/06/10 19:16:30;;;;;;;3.20;0.63;;;21.60;85.30;;;;;;5015063;28;20528;-89
2022/06/10 19:19:27;;;;;;;2.40;0.70;;;21.50;85.80;;;;;;4994820;28;20024;-88
2022/06/10 19:22:00;;;;;;;2.92;0.50;;;21.50;85.70;;;;;;5000196;28;20378;-89
2022/06/10 19:24:29;;;;;;;1.80;0.47;;;21.50;86.50;;;;;;5014443;28;20494;-90
2022/06/10 19:26:58;;;;;;;1.15;0.40;;;21.40;86.60;;;;;;4994098;28;20025;-89
2022/06/10 19:29:24;;;;;;;1.70;0.50;;;21.40;86.10;;;;;;4997065;28;20157;-85
2022/06/10 19:32:06;;;;;;;3.20;0.63;;;21.30;86.60;;;;;;5015155;28;20026;-84
2022/06/10 19:34:53;;;;;;;1.95;0.60;;;21.30;87.00;;;;;;4996684;28;20069;-86
2022/06/10 19:37:24;;;;;;;3.97;0.75;;;21.20;86.80;;;;;;4998628;28;20022;-86
2022/06/10 19:39:51;;;;;;;1.65;0.55;;;21.20;87.10;;;;;;5017265;28;20033;-86
2022/06/10 19:42:20;;;;;;;1.73;0.45;;;21.20;87.80;;;;;;5005259;28;20133;-87
2022/06/10 19:44:46;;;;;;;2.67;0.60;;;21.10;87.60;;;;;;5018975;28;20022;-85
2022/06/10 19:47:20;;;;;;;1.75;0.60;;;21.10;87.80;;;;;;5014262;28;20167;-89
2022/06/10 19:49:56;;;;;;;0.65;0.35;;;21.10;87.70;;;;;;5000595;28;20041;-87
2022/06/10 19:52:28;;;;;;;1.85;0.75;;;21.00;87.70;;;;;;5000530;28;20544;-87
2022/06/10 19:54:56;;;;;;;0.93;0.50;;;20.90;87.60;;;;;;4993511;28;20170;-87
2022/06/10 19:57:27;;;;;;;2.42;0.90;;;20.80;88.10;;;;;;5000351;28;20032;-87
2022/06/10 19:59:53;;;;;;;2.28;0.50;;;20.80;88.60;;;;;;4998777;28;20025;-86
2022/06/10 20:02:20;;;;;;;1.98;0.63;;;20.70;88.90;;;;;;5007927;28;20168;-87
2022/06/10 20:04:46;;;;;;;1.50;0.55;;;20.60;88.40;;;;;;4995998;28;20029;-87
2022/06/10 20:07:25;;;;;;;1.85;0.73;;;20.60;88.70;;;;;;5002726;28;20040;-88
2022/06/10 20:10:10;;;;;;;2.75;0.95;;;20.60;89.10;;;;;;4995506;28;20033;-88
2022/06/10 20:12:36;;;;;;;1.90;0.80;;;20.50;89.10;;;;;;5013619;28;20014;-88
2022/06/10 20:15:05;;;;;;;1.90;0.60;;;20.50;89.60;;;;;;5012057;28;20017;-89
2022/06/10 20:17:35;;;;;;;0.80;0.32;;;20.40;89.80;;;;;;4995704;28;20097;-88
2022/06/10 20:20:08;;;;;;;2.55;0.47;;;20.40;90.10;;;;;;4994024;28;20720;-88
2022/06/10 20:22:34;;;;;;;2.42;0.50;;;20.40;90.20;;;;;;5010728;28;20029;-88
2022/06/10 20:24:59;;;;;;;4.13;0.70;;;20.30;90.50;;;;;;4990524;28;20018;-87
2022/06/10 20:27:27;;;;;;;0.90;0.40;;;20.20;91.00;;;;;;4992026;28;20553;-86
2022/06/10 20:29:53;;;;;;;1.77;0.50;;;20.20;91.00;;;;;;4999511;28;20030;-88
2022/06/10 20:32:27;;;;;;;1.73;0.60;;;20.10;91.20;;;;;;4995015;28;20033;-88
2022/06/10 20:34:57;;;;;;;1.00;0.40;;;20.00;91.40;;;;;;4998348;28;20034;-88
2022/06/10 20:37:23;;;;;;;2.67;0.65;;;20.00;91.60;;;;;;4996139;28;20026;-88
2022/06/10 20:39:49;;;;;;;1.35;0.40;;;19.90;91.70;;;;;;4999887;28;20061;-87
2022/06/10 20:42:19;;;;;;;0.88;0.47;;;19.90;92.00;;;;;;4998179;28;20029;-88
2022/06/10 20:44:44;;;;;;;1.10;0.40;;;19.80;92.00;;;;;;5007624;28;20030;-87
2022/06/10 20:47:19;;;;;;;1.00;0.43;;;19.70;92.30;;;;;;4993994;28;20116;-88
2022/06/10 20:49:49;;;;;;;1.02;0.30;;;19.70;92.50;;;;;;4992130;28;20029;-88
2022/06/10 20:52:18;;;;;;;2.22;0.82;;;19.60;92.60;;;;;;4987116;28;20026;-87
2022/06/10 20:54:44;;;;;;;1.88;0.80;;;19.60;92.80;;;;;;5007096;28;20053;-84
2022/06/10 20:57:17;;;;;;;2.35;0.73;;;19.50;92.90;;;;;;5011749;28;20057;-85
2022/06/10 20:59:45;;;;;;;2.38;1.00;;;19.50;92.80;;;;;;4992904;28;20029;-87
2022/06/10 21:02:26;;;;;;;2.20;0.85;;;19.50;92.80;;;;;;4993575;28;20395;-88
2022/06/10 21:07:50;;;;;;;3.42;1.20;;;19.40;93.00;;;;;;5008180;28;20125;-88
2022/06/10 21:10:21;;;;;;;1.70;0.63;;;19.70;93.20;;;;;;4990133;28;20037;-88
2022/06/10 21:12:48;;;;;;;4.88;0.98;;;19.30;93.40;;;;;;4992014;28;20028;-88
2022/06/10 21:15:18;;;;;;;3.30;1.00;;;19.30;93.90;;;;;;4991559;28;20026;-87
2022/06/10 21:17:53;;;;;;;2.45;0.77;;;19.30;93.80;;;;;;4993585;28;20025;-87
2022/06/10 21:20:27;;;;;;;3.20;1.00;;;19.20;93.90;;;;;;4990978;28;20449;-88
2022/06/10 21:22:53;;;;;;;2.28;0.90;;;19.20;93.90;;;;;;5010142;28;20470;-87
2022/06/10 21:25:39;;;;;;;3.50;1.05;;;19.10;94.10;;;;;;4994083;28;20032;-87
2022/06/10 21:28:08;;;;;;;2.67;1.02;;;19.10;94.40;;;;;;4990407;28;20571;-86
2022/06/10 21:30:40;;;;;;;2.60;1.08;;;19.10;94.50;;;;;;4990285;28;20073;-87
2022/06/10 21:33:29;;;;;;;2.00;0.73;;;19.10;94.60;;;;;;5002262;23;20428;-88
2022/06/10 21:35:55;;;;;;;1.88;0.80;;;19.00;94.70;;;;;;4972701;28;20542;-87
2022/06/10 21:38:22;;;;;;;3.72;0.98;;;19.00;95.00;;;;;;4983410;28;20026;-87
2022/06/10 21:40:48;;;;;;;2.70;0.88;;;19.00;95.10;;;;;;4998105;28;20050;-87
2022/06/10 21:46:01;;;;;;;2.00;0.80;;;18.90;95.70;;;;;;4991463;28;20541;-87
2022/06/10 21:48:35;;;;;;;2.92;1.02;;;18.80;95.90;;;;;;4974987;28;20026;-87
2022/06/10 21:51:03;;;;;;;3.33;1.00;;;18.80;96.50;;;;;;4993859;28;20474;-87
2022/06/10 21:53:37;;;;;;;2.70;1.15;;;18.70;96.50;;;;;;4967102;28;20050;-87
2022/06/10 21:56:05;;;;;;;3.33;0.95;;;18.70;96.80;;;;;;4977361;28;20050;-87
2022/06/10 21:58:34;;;;;;;3.53;1.25;;;18.60;97.10;;;;;;4986738;28;20109;-87
2022/06/10 22:01:11;;;;;;;3.33;1.13;;;18.60;97.40;;;;;;4982530;28;20057;-87
2022/06/10 22:03:50;;;;;;;3.45;1.15;;;18.50;97.70;;;;;;4990683;28;20475;-87
2022/06/10 22:06:23;;;;;;;2.65;1.15;;;18.50;98.00;;;;;;4982958;28;20081;-86
2022/06/10 22:08:54;;;;;;;2.83;0.90;;;18.50;98.30;;;;;;4982023;28;20034;-87
2022/06/10 22:11:22;;;;;;;1.90;0.70;;;18.40;98.60;;;;;;4976130;28;20556;-86
2022/06/10 22:13:48;;;;;;;3.10;0.98;;;18.40;98.80;;;;;;4970990;28;20053;-87
2022/06/10 22:16:38;;;;;;;4.35;1.10;;;18.40;98.90;;;;;;4969987;28;20149;-87
2022/06/10 22:19:15;;;;;;;2.38;0.90;;;18.30;99.40;;;;;;4988483;28;20054;-87
2022/06/10 22:21:40;;;;;;;2.15;0.90;;;18.30;99.60;;;;;;4971806;28;20031;-88
2022/06/10 22:24:16;;;;;;;2.85;0.95;;;18.30;99.80;;;;;;4989289;28;20086;-87
2022/06/10 22:26:42;;;;;;;2.22;0.90;;;18.20;99.90;;;;;;4989825;28;20026;-87
2022/06/10 22:29:08;;;;;;;4.50;1.25;;;18.20;99.90;;;;;;4984651;28;20435;-87
2022/06/10 22:31:35;;;;;;;3.20;1.20;;;18.10;99.90;;;;;;4966605;28;20046;-87
2022/06/10 22:34:02;;;;;;;3.30;1.38;;;18.00;99.90;;;;;;4969769;28;20065;-87
2022/06/10 22:36:28;;;;;;;3.58;0.80;;;18.00;99.90;;;;;;4973531;28;20034;-87
2022/06/10 22:38:55;;;;;;;2.05;0.90;;;17.90;99.90;;;;;;4989875;28;20030;-87
2022/06/10 22:41:25;;;;;;;3.00;1.30;;;17.90;99.90;;;;;;4970134;28;20026;-87
2022/06/10 22:43:50;;;;;;;4.78;0.93;;;17.80;99.90;;;;;;4973354;28;20046;-87
2022/06/10 22:46:23;;;;;;;4.22;1.48;;;17.80;99.90;;;;;;4989242;28;20026;-87
2022/06/10 22:48:48;;;;;;;2.75;0.95;;;17.80;99.90;;;;;;4986311;28;20036;-87
2022/06/10 22:51:33;;;;;;;3.20;1.02;;;17.70;99.90;;;;;;4970774;28;20037;-87
2022/06/10 22:54:00;;;;;;;2.53;1.05;;;17.70;99.90;;;;;;4988799;28;20031;-87
2022/06/10 22:56:27;;;;;;;2.92;1.23;;;17.70;99.90;;;;;;4973005;28;20029;-87
2022/06/10 22:58:54;;;;;;;2.85;1.00;;;17.70;99.90;;;;;;4973129;28;20038;-87
2022/06/10 23:01:23;;;;;;;3.13;1.02;;;17.70;99.90;;;;;;4978497;28;20498;-87
2022/06/10 23:03:59;;;;;;;2.63;0.93;;;17.60;99.90;;;;;;4987249;28;20037;-87
2022/06/10 23:06:31;;;;;;;2.88;1.00;;;17.60;99.90;;;;;;4990090;28;20050;-87
2022/06/10 23:11:48;;;;;;;2.65;0.77;;;17.50;99.90;;;;;;4995130;28;20041;-87
2022/06/10 23:14:21;;;;;;;2.70;1.13;;;17.40;99.90;;;;;;4972248;28;20034;-86
2022/06/10 23:16:51;;;;;;;2.25;0.88;;;17.40;99.90;;;;;;4970124;28;20030;-87
2022/06/10 23:19:19;;;;;;;2.67;0.80;;;17.30;99.90;;;;;;4972185;28;20027;-86
2022/06/10 23:21:47;;;;;;;2.80;1.13;;;17.30;99.90;;;;;;4966112;28;20112;-87
2022/06/10 23:24:15;;;;;;;2.80;0.82;;;17.20;99.90;;;;;;4983082;28;20031;-86
2022/06/10 23:26:42;;;;;;;2.22;0.98;;;17.20;99.90;;;;;;4980673;28;21337;-87